Terminal Aerodrome Forecast
Issued by NWS

Home | Current Version | Previous Version | Text Only | Print | Product List | Glossary On
Versions: 1 2 3 4 5 6 7 8 9 10 11 12 13 14 15 16 17 18 19
535
FTUS46 KSTO 161729
TAFRDD
TAF
KRDD 161729Z 1618/1718 VRB03KT 3SM BR OVC035
      TEMPO 1618/1621 6SM BR
     FM162100 VRB03KT P6SM OVC035=

USA.gov is the U.S. government's official web portal to all federal, state and local government web resources and services.